Maple Grove, Minnesota
Current Conditions -  °F | °C
As of 7:53 AM on Thursday 18 Dec 2014 (Local Time) from KMIC Reporting Station
Overcast Overcast  
Wind Chill: 17°   Ceiling: 1400
Heat Index: 17°   Visibility: 10mi
Dew Point: 12°   Wind: 0mph
Humidity: 81%   Direction: NA
Pressure: 30.29"   Gusts: NA
Location:  45.1°N, 93.44°W
Report Text: KMIC 181353Z 00000KT 10SM OVC014 M08/M11 A3029 RMK AO2 SLP276 T10831111
Loading
Personal Weather Stations






























Interactive Weather Map New forecast layout! Learn more

10-Day Weather Forecast

Advertisements
Track Severe Weather on mobile